createdAt,value
2017-01-20T00:00:43.831Z,92.66
2017-01-20T00:01:44.161Z,92.38
2017-01-20T00:02:44.131Z,92.66
2017-01-20T00:03:44.100Z,92.47
2017-01-20T00:04:44.090Z,92.38
2017-01-20T00:05:44.049Z,92.29
2017-01-20T00:06:44.026Z,92.66
2017-01-20T00:07:44.007Z,92.66
2017-01-20T00:08:43.961Z,92.47
2017-01-20T00:09:43.936Z,92.76
2017-01-20T00:10:43.915Z,92.66
2017-01-20T00:11:43.884Z,92.66
2017-01-20T00:12:43.852Z,92.66
2017-01-20T00:13:43.820Z,92.76
2017-01-20T00:14:43.804Z,92.57
2017-01-20T00:15:43.773Z,93.32
2017-01-20T00:16:43.772Z,93.13
2017-01-20T00:17:43.324Z,92.94
2017-01-20T00:18:43.692Z,93.13
2017-01-20T00:19:43.251Z,93.13
2017-01-20T00:20:43.232Z,92.85
2017-01-20T00:21:43.600Z,93.04
2017-01-20T00:22:43.610Z,92.99
2017-01-20T00:23:43.148Z,92.94
2017-01-20T00:24:43.513Z,92.94
2017-01-20T00:25:43.498Z,93.04
2017-01-20T00:26:43.069Z,92.8
2017-01-20T00:27:43.033Z,92.85
2017-01-20T00:28:43.405Z,93.18
2017-01-20T00:29:42.975Z,93.66
2017-01-20T00:30:43.425Z,93.85
2017-01-20T00:31:43.343Z,93.51
2017-01-20T00:32:43.329Z,93.66
2017-01-20T00:33:43.273Z,93.66
2017-01-20T00:34:43.241Z,94.04
2017-01-20T00:35:42.811Z,94.23
2017-01-20T00:36:43.283Z,94.32
2017-01-20T00:37:43.156Z,94.04
2017-01-20T00:38:43.140Z,94.13
2017-01-20T00:39:43.101Z,94.04
2017-01-20T00:40:43.180Z,93.85
2017-01-20T00:41:43.049Z,93.75
2017-01-20T00:42:43.019Z,93.85
2017-01-20T00:43:42.989Z,94.32
2017-01-20T00:44:42.961Z,94.23
2017-01-20T00:45:42.932Z,94.13
2017-01-20T00:46:42.903Z,94.13
2017-01-20T00:47:42.886Z,94.6
2017-01-20T00:48:42.445Z,95.45
2017-01-20T00:49:42.835Z,95.17
2017-01-20T00:50:42.390Z,95.55
2017-01-20T00:51:42.362Z,95.26
2017-01-20T00:52:42.752Z,94.98
2017-01-20T00:53:42.712Z,94.93
2017-01-20T00:54:42.680Z,94.46
2017-01-20T00:55:42.248Z,94.08
2017-01-20T00:56:42.220Z,93.8
2017-01-20T00:57:42.597Z,93.89
2017-01-20T00:58:42.569Z,93.94
2017-01-20T00:59:42.148Z,93.47
2017-01-20T01:00:42.516Z,93.85
2017-01-20T01:01:42.486Z,94.13
2017-01-20T01:02:42.457Z,94.42
2017-01-20T01:03:42.442Z,94.13
2017-01-20T01:04:42.398Z,94.32
2017-01-20T01:05:42.384Z,94.23
2017-01-20T01:06:41.958Z,94.13
2017-01-20T01:07:42.324Z,94.13
2017-01-20T01:08:42.291Z,94.32
2017-01-20T01:09:41.861Z,94.42
2017-01-20T01:10:41.827Z,94.6
2017-01-20T01:11:41.803Z,94.6
2017-01-20T01:12:42.180Z,94.98
2017-01-20T01:13:41.749Z,95.26
2017-01-20T01:14:42.125Z,95.17
2017-01-20T01:15:42.092Z,95.17
2017-01-20T01:16:42.062Z,94.89
2017-01-20T01:17:41.632Z,94.89
2017-01-20T01:18:41.608Z,94.89
2017-01-20T01:19:41.980Z,94.89
2017-01-20T01:20:41.947Z,94.51
2017-01-20T01:21:41.922Z,94.6
2017-01-20T01:22:41.996Z,94.32
2017-01-20T01:23:41.876Z,94.7
2017-01-20T01:24:41.905Z,94.51
2017-01-20T01:25:41.812Z,94.51
2017-01-20T01:26:41.877Z,94.51
2017-01-20T01:27:41.771Z,94.51
2017-01-20T01:28:41.732Z,94.89
2017-01-20T01:29:41.701Z,95.17
2017-01-20T01:30:41.741Z,94.79
2017-01-20T01:31:41.650Z,94.98
2017-01-20T01:32:41.220Z,95.45
2017-01-20T01:33:41.589Z,95.07
2017-01-20T01:34:41.559Z,95.07
2017-01-20T01:35:41.531Z,95.55
2017-01-20T01:36:41.618Z,96.02
2017-01-20T01:37:41.477Z,95.45
2017-01-20T01:38:41.496Z,96.02
2017-01-20T01:39:41.414Z,95.74
2017-01-20T01:40:41.405Z,96.5
2017-01-20T01:41:41.375Z,96.21
2017-01-20T01:42:41.334Z,96.4
2017-01-20T01:43:40.905Z,96.4
2017-01-20T01:44:41.284Z,95.93
2017-01-20T01:45:41.241Z,96.31
2017-01-20T01:46:41.221Z,96.78
2017-01-20T01:47:41.207Z,96.5
2017-01-20T01:48:40.761Z,96.69
2017-01-20T01:49:41.141Z,96.4
2017-01-20T01:50:41.111Z,96.59
2017-01-20T01:51:40.680Z,96.97
2017-01-20T01:52:41.049Z,96.78
2017-01-20T01:53:41.024Z,96.69
2017-01-20T01:54:40.984Z,96.97
2017-01-20T01:55:40.561Z,96.97
2017-01-20T01:56:40.947Z,96.69
2017-01-20T01:57:40.905Z,96.78
2017-01-20T01:58:40.487Z,97.06
2017-01-20T01:59:40.439Z,96.78
2017-01-20T02:00:40.821Z,96.88
2017-01-20T02:01:40.793Z,96.78
2017-01-20T02:02:40.774Z,96.78
2017-01-20T02:03:40.736Z,96.69
2017-01-20T02:04:40.712Z,96.97
2017-01-20T02:05:40.682Z,96.88
2017-01-20T02:06:40.646Z,97.16
2017-01-20T02:07:40.631Z,96.97
2017-01-20T02:08:40.605Z,97.16
2017-01-20T02:09:40.570Z,96.59
2017-01-20T02:10:40.559Z,96.78
2017-01-20T02:11:40.514Z,96.78
2017-01-20T02:12:40.481Z,96.5
2017-01-20T02:13:40.078Z,96.88
2017-01-20T02:14:40.428Z,96.59
2017-01-20T02:15:39.996Z,96.97
2017-01-20T02:16:39.965Z,97.16
2017-01-20T02:17:40.436Z,96.97
2017-01-20T02:18:40.318Z,96.97
2017-01-20T02:19:40.317Z,96.97
2017-01-20T02:20:39.847Z,96.69
2017-01-20T02:21:40.242Z,96.97
2017-01-20T02:22:39.800Z,97.06
2017-01-20T02:23:40.183Z,96.69
2017-01-20T02:24:40.153Z,96.5
2017-01-20T02:25:40.130Z,96.21
2017-01-20T02:26:39.681Z,96.5
2017-01-20T02:27:39.656Z,96.88
2017-01-20T02:28:39.620Z,96.97
2017-01-20T02:29:39.599Z,96.31
2017-01-20T02:30:39.571Z,96.4
2017-01-20T02:31:39.959Z,96.5
2017-01-20T02:32:39.929Z,96.59
2017-01-20T02:33:39.488Z,96.69
2017-01-20T02:34:39.457Z,96.78
2017-01-20T02:35:39.916Z,96.78
2017-01-20T02:36:39.401Z,96.97
2017-01-20T02:37:39.429Z,96.59
2017-01-20T02:38:39.745Z,97.06
2017-01-20T02:39:39.720Z,96.97
2017-01-20T02:40:39.281Z,96.97
2017-01-20T02:41:39.662Z,96.21
2017-01-20T02:42:39.628Z,96.31
2017-01-20T02:43:39.239Z,96.31
2017-01-20T02:44:39.592Z,96.59
2017-01-20T02:45:39.540Z,96.12
2017-01-20T02:46:39.523Z,96.21
2017-01-20T02:47:39.486Z,96.21
2017-01-20T02:48:39.056Z,96.21
2017-01-20T02:49:39.449Z,96.4
2017-01-20T02:50:39.395Z,96.31
2017-01-20T02:51:39.371Z,97.06
2017-01-20T02:52:39.357Z,96.78
2017-01-20T02:53:39.318Z,96.5
2017-01-20T02:54:39.292Z,96.12
2017-01-20T02:55:39.260Z,97.06
2017-01-20T02:56:39.235Z,96.4
2017-01-20T02:57:39.225Z,96.12
2017-01-20T02:58:39.174Z,96.12
2017-01-20T02:59:39.152Z,96.5
2017-01-20T03:00:39.116Z,96.21
2017-01-20T03:01:39.091Z,96.21
2017-01-20T03:02:39.060Z,96.31
2017-01-20T03:03:39.041Z,96.31
2017-01-20T03:04:38.608Z,95.83
2017-01-20T03:05:38.979Z,96.31
2017-01-20T03:06:38.548Z,96.02
2017-01-20T03:07:38.926Z,96.31
2017-01-20T03:08:38.500Z,96.69
2017-01-20T03:09:38.864Z,96.78
2017-01-20T03:10:38.831Z,96.97
2017-01-20T03:11:38.809Z,96.59
2017-01-20T03:12:38.772Z,96.97
2017-01-20T03:13:38.751Z,96.88
2017-01-20T03:14:38.729Z,96.97
2017-01-20T03:15:38.692Z,96.69
2017-01-20T03:16:38.263Z,96.97
2017-01-20T03:17:38.643Z,96.97
2017-01-20T03:18:38.607Z,96.78
2017-01-20T03:19:38.577Z,96.78
2017-01-20T03:20:38.562Z,96.69
2017-01-20T03:21:38.531Z,96.97
2017-01-20T03:22:38.550Z,96.59
2017-01-20T03:23:38.470Z,97.06
2017-01-20T03:24:38.510Z,97.06
2017-01-20T03:25:38.404Z,96.97
2017-01-20T03:26:38.378Z,96.59
2017-01-20T03:27:38.358Z,96.88
2017-01-20T03:28:37.964Z,96.97
2017-01-20T03:29:38.292Z,96.97
2017-01-20T03:30:37.853Z,96.78
2017-01-20T03:31:38.246Z,97.25
2017-01-20T03:32:37.814Z,96.78
2017-01-20T03:33:38.184Z,96.88
2017-01-20T03:34:38.148Z,96.78
2017-01-20T03:35:37.727Z,96.69
2017-01-20T03:36:37.693Z,96.78
2017-01-20T03:37:38.071Z,96.5
2017-01-20T03:38:37.640Z,96.31
2017-01-20T03:39:38.014Z,96.31
2017-01-20T03:40:37.592Z,96.21
2017-01-20T03:41:37.962Z,97.06
2017-01-20T03:42:37.530Z,96.59
2017-01-20T03:43:37.501Z,96.59
2017-01-20T03:44:37.876Z,96.21
2017-01-20T03:45:37.833Z,96.4
2017-01-20T03:46:37.818Z,96.88
2017-01-20T03:47:37.778Z,96.59
2017-01-20T03:48:37.353Z,96.97
2017-01-20T03:49:37.732Z,96.78
2017-01-20T03:50:37.702Z,96.97
2017-01-20T03:51:37.268Z,96.97
2017-01-20T03:52:37.652Z,96.69
2017-01-20T03:53:37.616Z,96.4
2017-01-20T03:54:37.186Z,95.93
2017-01-20T03:55:37.563Z,96.21
2017-01-20T03:56:37.533Z,96.4
2017-01-20T03:57:37.497Z,96.31
2017-01-20T03:58:37.470Z,96.21
2017-01-20T03:59:37.474Z,95.83
2017-01-20T04:00:37.012Z,95.74
2017-01-20T04:01:36.983Z,95.55
2017-01-20T04:02:36.951Z,95.74
2017-01-20T04:03:37.329Z,96.02
2017-01-20T04:04:37.301Z,95.83
2017-01-20T04:05:36.879Z,95.64
2017-01-20T04:06:37.345Z,96.31
2017-01-20T04:07:36.807Z,96.02
2017-01-20T04:08:37.192Z,96.4
2017-01-20T04:09:36.762Z,95.83
2017-01-20T04:10:36.728Z,96.12
2017-01-20T04:11:37.106Z,95.93
2017-01-20T04:12:36.680Z,95.93
2017-01-20T04:13:37.055Z,95.64
2017-01-20T04:14:37.027Z,95.55
2017-01-20T04:15:36.992Z,95.74
2017-01-20T04:16:36.961Z,95.74
2017-01-20T04:17:36.531Z,95.45
2017-01-20T04:18:36.908Z,96.02
2017-01-20T04:19:36.880Z,95.93
2017-01-20T04:20:36.851Z,96.02
2017-01-20T04:21:36.827Z,95.83
2017-01-20T04:22:36.388Z,95.83
2017-01-20T04:23:36.763Z,95.83
2017-01-20T04:24:36.729Z,95.93
2017-01-20T04:25:36.708Z,95.83
2017-01-20T04:26:36.679Z,95.55
2017-01-20T04:27:36.245Z,95.55
2017-01-20T04:28:36.620Z,96.02
2017-01-20T04:29:36.187Z,95.74
2017-01-20T04:30:36.172Z,95.26
2017-01-20T04:31:36.540Z,95.26
2017-01-20T04:32:36.508Z,95.78
2017-01-20T04:33:36.082Z,95.97
2017-01-20T04:34:36.450Z,95.5
2017-01-20T04:35:36.427Z,94.84
2017-01-20T04:36:36.398Z,95.12
2017-01-20T04:37:36.375Z,95.03
2017-01-20T04:38:36.348Z,95.5
2017-01-20T04:39:36.333Z,95.78
2017-01-20T04:40:35.886Z,94.84
2017-01-20T04:41:35.859Z,95.03
2017-01-20T04:42:36.229Z,95.12
2017-01-20T04:43:36.201Z,95.03
2017-01-20T04:44:35.775Z,95.12
2017-01-20T04:45:36.146Z,94.74
2017-01-20T04:46:35.714Z,94.93
2017-01-20T04:47:36.094Z,95.03
2017-01-20T04:48:36.063Z,94.74
2017-01-20T04:49:36.056Z,95.5
2017-01-20T04:50:36.012Z,95.59
2017-01-20T04:51:35.983Z,95.59
2017-01-20T04:52:35.551Z,95.5
2017-01-20T04:53:35.521Z,95.03
2017-01-20T04:54:35.999Z,95.21
2017-01-20T04:55:35.871Z,95.03
2017-01-20T04:56:35.899Z,95.21
2017-01-20T04:57:35.812Z,94.27
2017-01-20T04:58:35.888Z,94.65
2017-01-20T04:59:35.768Z,94.56
2017-01-20T05:00:35.326Z,94.74
2017-01-20T05:01:35.765Z,94.56
2017-01-20T05:02:35.675Z,94.56
2017-01-20T05:03:35.645Z,94.18
2017-01-20T05:04:35.621Z,94.08
2017-01-20T05:05:35.704Z,94.08
2017-01-20T05:06:35.154Z,93.7
2017-01-20T05:07:35.583Z,93.13
2017-01-20T05:08:35.103Z,92.94
2017-01-20T05:09:35.583Z,93.23
2017-01-20T05:10:35.047Z,93.32
2017-01-20T05:11:35.482Z,92.94
2017-01-20T05:12:35.411Z,92.76
2017-01-20T05:13:35.460Z,93.04
2017-01-20T05:14:34.940Z,93.32
2017-01-20T05:15:35.411Z,93.51
2017-01-20T05:16:35.287Z,93.23
2017-01-20T05:17:35.259Z,92.38
2017-01-20T05:18:35.238Z,91.72
2017-01-20T05:19:34.792Z,91.81
2017-01-20T05:20:35.172Z,91.43
2017-01-20T05:21:34.747Z,90.96
2017-01-20T05:22:35.123Z,91.43
2017-01-20T05:23:34.686Z,91.34
2017-01-20T05:24:35.068Z,91.15
2017-01-20T05:25:35.029Z,91.34
2017-01-20T05:26:35.013Z,91.15
2017-01-20T05:27:34.976Z,90.77
2017-01-20T05:28:34.954Z,90.67
2017-01-20T05:29:34.519Z,90.48
2017-01-20T05:30:34.896Z,91.34
2017-01-20T05:31:34.472Z,91.24
2017-01-20T05:32:34.852Z,90.67
2017-01-20T05:33:34.412Z,90.39
2017-01-20T05:34:34.789Z,89.82
2017-01-20T05:35:34.360Z,90.58
2017-01-20T05:36:34.730Z,90.39
2017-01-20T05:37:34.296Z,90.67
2017-01-20T05:38:34.280Z,90.96
2017-01-20T05:39:34.669Z,90.58
2017-01-20T05:40:34.623Z,90.2
2017-01-20T05:41:34.592Z,90.39
2017-01-20T05:42:34.578Z,90.77
2017-01-20T05:43:34.539Z,90.39
2017-01-20T05:44:34.513Z,89.92
2017-01-20T05:45:34.483Z,90.48
2017-01-20T05:46:34.067Z,90.77
2017-01-20T05:47:34.419Z,91.34
2017-01-20T05:48:34.003Z,91.15
2017-01-20T05:49:34.375Z,91.24
2017-01-20T05:50:34.354Z,91.15
2017-01-20T05:51:33.924Z,91.34
2017-01-20T05:52:34.287Z,90.58
2017-01-20T05:53:34.272Z,91.15
2017-01-20T05:54:34.230Z,91.15
2017-01-20T05:55:34.221Z,90.2
2017-01-20T05:56:34.187Z,90.39
2017-01-20T05:57:33.861Z,90.77
2017-01-20T05:58:34.128Z,91.05
2017-01-20T05:59:34.154Z,91.05
2017-01-20T06:00:33.665Z,90.77
2017-01-20T06:01:34.103Z,90.67
2017-01-20T06:02:33.619Z,90.67
2017-01-20T06:03:33.662Z,91.05
2017-01-20T06:04:33.557Z,91.62
2017-01-20T06:05:33.946Z,91.53
2017-01-20T06:06:33.516Z,91.24
2017-01-20T06:07:33.978Z,91.53
2017-01-20T06:08:33.878Z,91.34
2017-01-20T06:09:33.844Z,90.86
2017-01-20T06:10:33.903Z,91.05
2017-01-20T06:11:33.828Z,90.67
2017-01-20T06:12:33.772Z,90.48
2017-01-20T06:13:33.817Z,90.67
2017-01-20T06:14:33.289Z,90.67
2017-01-20T06:15:33.260Z,90.48
2017-01-20T06:16:33.239Z,90.11
2017-01-20T06:17:33.203Z,89.82
2017-01-20T06:18:33.574Z,90.01
2017-01-20T06:19:33.548Z,90.3
2017-01-20T06:20:33.525Z,90.01
2017-01-20T06:21:33.098Z,90.01
2017-01-20T06:22:33.478Z,90.67
2017-01-20T06:23:33.030Z,90.11
2017-01-20T06:24:33.014Z,90.11
2017-01-20T06:25:33.376Z,90.11
2017-01-20T06:26:32.951Z,90.01
2017-01-20T06:27:32.928Z,89.92
2017-01-20T06:28:33.298Z,89.92
2017-01-20T06:29:32.872Z,89.82
2017-01-20T06:30:32.864Z,89.82
2017-01-20T06:31:33.231Z,90.2
2017-01-20T06:32:33.197Z,89.92
2017-01-20T06:33:33.166Z,89.92
2017-01-20T06:34:32.737Z,90.11
2017-01-20T06:35:33.121Z,90.58
2017-01-20T06:36:32.675Z,90.48
2017-01-20T06:37:32.652Z,90.67
2017-01-20T06:38:32.626Z,90.77
2017-01-20T06:39:33.048Z,90.77
2017-01-20T06:40:32.977Z,91.34
2017-01-20T06:41:32.947Z,91.53
2017-01-20T06:42:32.523Z,91.72
2017-01-20T06:43:32.895Z,91.53
2017-01-20T06:44:32.860Z,91.05
2017-01-20T06:45:32.428Z,91.34
2017-01-20T06:46:32.804Z,91.05
2017-01-20T06:47:32.780Z,90.96
2017-01-20T06:48:32.343Z,91.34
2017-01-20T06:49:32.313Z,91.24
2017-01-20T06:50:32.745Z,90.86
2017-01-20T06:51:32.269Z,90.67
2017-01-20T06:52:32.643Z,90.77
2017-01-20T06:53:32.614Z,91.05
2017-01-20T06:54:32.231Z,91.24
2017-01-20T06:55:32.558Z,91.43
2017-01-20T06:56:32.638Z,91.24
2017-01-20T06:57:32.504Z,91.53
2017-01-20T06:58:32.472Z,91.24
2017-01-20T06:59:32.455Z,91.15
2017-01-20T07:00:32.038Z,91.53
2017-01-20T07:01:31.997Z,91.62
2017-01-20T07:02:32.372Z,91.24
2017-01-20T07:03:32.346Z,91.43
2017-01-20T07:04:32.329Z,91.24
2017-01-20T07:05:32.280Z,91.43
2017-01-20T07:06:32.281Z,91.81
2017-01-20T07:07:31.833Z,92.1
2017-01-20T07:08:31.819Z,91.81
2017-01-20T07:09:32.230Z,91.72
2017-01-20T07:10:32.250Z,91.53
2017-01-20T07:11:32.219Z,91.72
2017-01-20T07:12:32.099Z,91.76
2017-01-20T07:13:32.075Z,91.72
2017-01-20T07:14:32.036Z,92
2017-01-20T07:15:31.608Z,91.86
2017-01-20T07:16:31.981Z,92.05
2017-01-20T07:17:31.958Z,92.05
2017-01-20T07:18:31.524Z,92.71
2017-01-20T07:19:31.503Z,92.71
2017-01-20T07:20:31.872Z,92.43
2017-01-20T07:21:31.849Z,92.57
2017-01-20T07:22:31.822Z,92.71
2017-01-20T07:23:31.796Z,92.8
2017-01-20T07:24:31.765Z,92.8
2017-01-20T07:25:31.339Z,92.57
2017-01-20T07:26:31.704Z,92.57
2017-01-20T07:27:31.683Z,93.04
2017-01-20T07:28:31.658Z,93.04
2017-01-20T07:29:31.632Z,92.76
2017-01-20T07:30:31.604Z,93.42
2017-01-20T07:31:31.581Z,93.42
2017-01-20T07:32:31.552Z,92.85
2017-01-20T07:33:31.520Z,93.04
2017-01-20T07:34:31.490Z,93.13
2017-01-20T07:35:31.466Z,93.18
2017-01-20T07:36:31.436Z,93.18
2017-01-20T07:37:31.428Z,93.27
2017-01-20T07:38:30.978Z,93.13
2017-01-20T07:39:31.367Z,93.04
2017-01-20T07:40:31.327Z,93.18
2017-01-20T07:41:31.312Z,92.8
2017-01-20T07:42:30.862Z,93.23
2017-01-20T07:43:30.841Z,93.08
2017-01-20T07:44:31.225Z,93.08
2017-01-20T07:45:31.191Z,92.71
2017-01-20T07:46:31.164Z,92.52
2017-01-20T07:47:31.134Z,93.08
2017-01-20T07:48:31.113Z,93.18
2017-01-20T07:49:31.079Z,92.9
2017-01-20T07:50:31.047Z,92.71
2017-01-20T07:51:30.628Z,92.33
2017-01-20T07:52:30.603Z,92.61
2017-01-20T07:53:30.571Z,92.33
2017-01-20T07:54:30.540Z,92.43
2017-01-20T07:55:30.916Z,92.05
2017-01-20T07:56:30.889Z,92.05
2017-01-20T07:57:30.880Z,92.14
2017-01-20T07:58:30.833Z,92.05
2017-01-20T07:59:30.818Z,91.95
2017-01-20T08:00:30.792Z,91.86
2017-01-20T08:01:30.755Z,92.05
2017-01-20T08:02:30.325Z,92.14
2017-01-20T08:03:30.759Z,92.24
2017-01-20T08:04:30.675Z,92.05
2017-01-20T08:05:30.273Z,91.76
2017-01-20T08:06:30.617Z,92.05
2017-01-20T08:07:30.716Z,91.48
2017-01-20T08:08:30.556Z,91.67
2017-01-20T08:09:30.540Z,91.86
2017-01-20T08:10:30.509Z,91.86
2017-01-20T08:11:30.498Z,91.57
2017-01-20T08:12:30.450Z,91.57
2017-01-20T08:13:30.438Z,91.48
2017-01-20T08:14:30.406Z,91.67
2017-01-20T08:15:30.387Z,91.86
2017-01-20T08:16:30.339Z,91.19
2017-01-20T08:17:30.315Z,91.29
2017-01-20T08:18:29.893Z,91.29
2017-01-20T08:19:29.863Z,91.38
2017-01-20T08:20:30.253Z,91.67
2017-01-20T08:21:30.203Z,92.14
2017-01-20T08:22:30.181Z,92.05
2017-01-20T08:23:29.747Z,92.05
2017-01-20T08:24:30.143Z,91.95
2017-01-20T08:25:30.105Z,92.05
2017-01-20T08:26:30.071Z,92.14
2017-01-20T08:27:30.044Z,92.52
2017-01-20T08:28:30.035Z,92.24
2017-01-20T08:29:29.994Z,92.52
2017-01-20T08:30:29.565Z,92.28
2017-01-20T08:31:29.545Z,92
2017-01-20T08:32:29.913Z,91.9
2017-01-20T08:33:29.892Z,91.71
2017-01-20T08:34:29.461Z,91.9
2017-01-20T08:35:29.827Z,91.71
2017-01-20T08:36:29.398Z,91.9
2017-01-20T08:37:29.780Z,91.43
2017-01-20T08:38:29.349Z,91.52
2017-01-20T08:39:29.316Z,90.95
2017-01-20T08:40:29.697Z,91.52
2017-01-20T08:41:29.674Z,91.52
2017-01-20T08:42:29.636Z,90.95
2017-01-20T08:43:29.620Z,91.33
2017-01-20T08:44:29.591Z,91.05
2017-01-20T08:45:29.164Z,90.58
2017-01-20T08:46:29.543Z,90.77
2017-01-20T08:47:29.122Z,89.91
2017-01-20T08:48:29.506Z,90.01
2017-01-20T08:49:29.461Z,89.58
2017-01-20T08:50:29.442Z,89.39
2017-01-20T08:51:29.000Z,89.11
2017-01-20T08:52:28.983Z,89.11
2017-01-20T08:53:29.354Z,88.63
2017-01-20T08:54:28.928Z,87.87
2017-01-20T08:55:28.909Z,87.68
2017-01-20T08:56:29.288Z,87.02
2017-01-20T08:57:29.253Z,86.97
2017-01-20T08:58:29.782Z,86.49
2017-01-20T08:59:29.202Z,86.3
2017-01-20T09:00:28.793Z,85.45
2017-01-20T09:01:29.160Z,84.45
2017-01-20T09:02:29.133Z,83.69
2017-01-20T09:03:29.126Z,82.65
2017-01-20T09:04:28.694Z,82.36
2017-01-20T09:05:29.082Z,81.93
2017-01-20T09:06:28.633Z,81.17
2017-01-20T09:07:28.611Z,80.51
2017-01-20T09:08:29.002Z,79.79
2017-01-20T09:09:29.004Z,78.93
2017-01-20T09:10:28.941Z,78.74
2017-01-20T09:11:28.930Z,77.31
2017-01-20T09:12:28.909Z,77.07
2017-01-20T09:13:28.891Z,76.21
2017-01-20T09:14:28.857Z,75.74
2017-01-20T09:15:28.848Z,75.02
2017-01-20T09:16:28.428Z,75.21
2017-01-20T09:17:28.796Z,75.02
2017-01-20T09:18:28.374Z,74.51
2017-01-20T09:19:28.764Z,74.41
2017-01-20T09:20:28.746Z,74.51
2017-01-20T09:21:28.315Z,73.93
2017-01-20T09:22:28.765Z,73.93
2017-01-20T09:23:28.679Z,74.12
2017-01-20T09:24:28.314Z,73.84
2017-01-20T09:25:28.633Z,73.46
2017-01-20T09:26:28.701Z,73.46
2017-01-20T09:27:28.602Z,73.84
2017-01-20T09:28:28.611Z,73.84
2017-01-20T09:29:28.564Z,73.93
2017-01-20T09:30:28.141Z,73.55
2017-01-20T09:31:28.514Z,73.74
2017-01-20T09:32:28.500Z,73.65
2017-01-20T09:33:28.477Z,73.65
2017-01-20T09:34:28.464Z,73.08
2017-01-20T09:35:28.438Z,73.74
2017-01-20T09:36:28.478Z,73.36
2017-01-20T09:37:28.386Z,73.46
2017-01-20T09:38:28.444Z,73.02
2017-01-20T09:39:28.370Z,71.78
2017-01-20T09:40:28.397Z,71.5
2017-01-20T09:41:28.310Z,70.93
2017-01-20T09:42:28.292Z,70.68
2017-01-20T09:43:28.333Z,70.77
2017-01-20T09:44:28.273Z,70.01
2017-01-20T09:45:28.253Z,70.01
2017-01-20T09:46:27.822Z,69.35
2017-01-20T09:47:28.262Z,68.81
2017-01-20T09:48:28.191Z,68.24
2017-01-20T09:49:28.202Z,68.52
2017-01-20T09:50:27.803Z,68.62
2017-01-20T09:51:28.167Z,69
2017-01-20T09:52:27.711Z,68.49
2017-01-20T09:53:27.689Z,68.77
2017-01-20T09:54:28.132Z,68.59
2017-01-20T09:55:28.057Z,68.68
2017-01-20T09:56:27.639Z,68.49
2017-01-20T09:57:28.021Z,68.68
2017-01-20T09:58:27.598Z,68.59
2017-01-20T09:59:28.024Z,67.82
2017-01-20T10:00:27.964Z,68.3
2017-01-20T10:01:27.927Z,67.82
2017-01-20T10:02:27.916Z,67.16
2017-01-20T10:03:27.955Z,67.35
2017-01-20T10:04:27.483Z,66.97
2017-01-20T10:05:27.454Z,66.81
2017-01-20T10:06:27.843Z,65.77
2017-01-20T10:07:27.883Z,65.48
2017-01-20T10:08:27.854Z,65.77
2017-01-20T10:09:27.789Z,65.86
2017-01-20T10:10:27.772Z,66.14
2017-01-20T10:11:27.747Z,66.05
2017-01-20T10:12:27.724Z,65.48
2017-01-20T10:13:27.767Z,65.77
2017-01-20T10:14:27.690Z,65.38
2017-01-20T10:15:27.680Z,65.19
2017-01-20T10:16:27.655Z,65.13
2017-01-20T10:17:27.647Z,64.65
2017-01-20T10:18:27.618Z,64.28
2017-01-20T10:19:27.602Z,64.62
2017-01-20T10:20:27.181Z,64.56
2017-01-20T10:21:27.171Z,64.56
2017-01-20T10:22:27.144Z,63.89
2017-01-20T10:23:27.640Z,63.92
2017-01-20T10:24:27.510Z,63.54
2017-01-20T10:25:27.083Z,63.26
2017-01-20T10:26:27.066Z,63.26
2017-01-20T10:27:27.457Z,62.49
2017-01-20T10:28:27.441Z,62.49
2017-01-20T10:29:27.420Z,62.59
2017-01-20T10:30:27.404Z,62.4
2017-01-20T10:31:27.392Z,62.88
2017-01-20T10:32:27.369Z,63.07
2017-01-20T10:33:27.347Z,63.35
2017-01-20T10:34:26.928Z,63.35
2017-01-20T10:35:27.327Z,63.17
2017-01-20T10:36:27.297Z,62.78
2017-01-20T10:37:27.285Z,62.81
2017-01-20T10:38:27.269Z,62.68
2017-01-20T10:39:27.237Z,61.86
2017-01-20T10:40:27.221Z,61.1
2017-01-20T10:41:27.205Z,60.75
2017-01-20T10:42:27.190Z,60.65
2017-01-20T10:43:26.766Z,60.84
2017-01-20T10:44:26.760Z,60.84
2017-01-20T10:45:26.733Z,59.89
2017-01-20T10:46:27.124Z,59.89
2017-01-20T10:47:27.104Z,59.7
2017-01-20T10:48:26.685Z,59.99
2017-01-20T10:49:26.671Z,59.22
2017-01-20T10:50:27.052Z,58.94
2017-01-20T10:51:26.629Z,58.65
2017-01-20T10:52:26.613Z,58.55
2017-01-20T10:53:27.008Z,59.03
2017-01-20T10:54:26.988Z,58.94
2017-01-20T10:55:26.967Z,58.84
2017-01-20T10:56:26.959Z,59.76
2017-01-20T10:57:26.937Z,59.48
2017-01-20T10:58:26.508Z,59.95
2017-01-20T10:59:26.913Z,59.67
2017-01-20T11:00:26.888Z,59.35
2017-01-20T11:01:26.862Z,59.64
2017-01-20T11:02:26.847Z,59.89
2017-01-20T11:03:26.439Z,60.02
2017-01-20T11:04:26.412Z,59.64
2017-01-20T11:05:26.806Z,59.54
2017-01-20T11:06:26.813Z,59.54
2017-01-20T11:07:26.764Z,60.49
2017-01-20T11:08:26.331Z,60.59
2017-01-20T11:09:26.739Z,60.4
2017-01-20T11:10:26.760Z,59.83
2017-01-20T11:11:26.280Z,59.57
2017-01-20T11:12:26.668Z,58.72
2017-01-20T11:13:26.252Z,58.84
2017-01-20T11:14:26.637Z,57.98
2017-01-20T11:15:26.619Z,57.12
2017-01-20T11:16:26.646Z,56.87
2017-01-20T11:17:26.588Z,56.1
2017-01-20T11:18:26.561Z,56.1
2017-01-20T11:19:26.145Z,55.53
2017-01-20T11:20:26.556Z,55.43
2017-01-20T11:21:26.509Z,55.27
2017-01-20T11:22:26.483Z,55.27
2017-01-20T11:23:26.482Z,54.99
2017-01-20T11:24:26.107Z,54.06
2017-01-20T11:25:26.448Z,53.67
2017-01-20T11:26:26.432Z,52.55
2017-01-20T11:27:26.410Z,52.34
2017-01-20T11:28:26.397Z,53.29
2017-01-20T11:29:26.381Z,52.65
2017-01-20T11:30:26.411Z,51.98
2017-01-20T11:31:26.349Z,51.7
2017-01-20T11:32:25.928Z,51.03
2017-01-20T11:33:25.909Z,50.33
2017-01-20T11:34:25.890Z,49.88
2017-01-20T11:35:26.279Z,49.76
2017-01-20T11:36:26.266Z,49.88
2017-01-20T11:37:26.246Z,49.88
2017-01-20T11:38:26.236Z,50.07
2017-01-20T11:39:26.215Z,49.88
2017-01-20T11:40:26.205Z,50.07
2017-01-20T11:41:26.196Z,50.07
2017-01-20T11:42:26.174Z,50.64
2017-01-20T11:43:26.153Z,50.55
2017-01-20T11:44:25.735Z,50.76
2017-01-20T11:45:25.716Z,50.29
2017-01-20T11:46:26.109Z,50
2017-01-20T11:47:26.098Z,49.62
2017-01-20T11:48:26.081Z,49.52
2017-01-20T11:49:26.070Z,49.52
2017-01-20T11:50:26.055Z,48.75
2017-01-20T11:51:26.041Z,48.66
2017-01-20T11:52:25.619Z,48.28
2017-01-20T11:53:26.010Z,48.85
2017-01-20T11:54:25.983Z,48.95
2017-01-20T11:55:25.974Z,48.66
2017-01-20T11:56:25.957Z,48.75
2017-01-20T11:57:25.957Z,49.9
2017-01-20T11:58:25.925Z,49.52
2017-01-20T11:59:25.925Z,49.35
2017-01-20T12:00:25.916Z,49.71
2017-01-20T12:01:25.883Z,49.16
2017-01-20T12:02:25.464Z,49.93
2017-01-20T12:03:25.849Z,49.45
2017-01-20T12:04:25.832Z,49.64
2017-01-20T12:05:25.820Z,50
2017-01-20T12:06:25.810Z,49.62
2017-01-20T12:07:25.385Z,50.09
2017-01-20T12:08:25.779Z,50.48
2017-01-20T12:09:25.348Z,50.48
2017-01-20T12:10:25.740Z,50.29
2017-01-20T12:11:25.727Z,50.12
2017-01-20T12:12:25.307Z,50
2017-01-20T12:13:25.698Z,49.84
2017-01-20T12:14:25.679Z,50.41
2017-01-20T12:15:25.663Z,49.86
2017-01-20T12:16:25.652Z,49.74
2017-01-20T12:17:25.625Z,49.64
2017-01-20T12:18:25.623Z,49.55
2017-01-20T12:19:25.603Z,49.55
2017-01-20T12:20:25.182Z,49.84
2017-01-20T12:21:25.565Z,49.74
2017-01-20T12:22:25.560Z,50.02
2017-01-20T12:23:25.127Z,50.12
2017-01-20T12:24:25.530Z,50.02
2017-01-20T12:25:25.509Z,50
2017-01-20T12:26:25.495Z,50.38
2017-01-20T12:27:25.473Z,50.29
2017-01-20T12:28:25.058Z,50.57
2017-01-20T12:29:25.447Z,51.43
2017-01-20T12:30:25.432Z,51.79
2017-01-20T12:31:25.016Z,52.36
2017-01-20T12:32:25.394Z,52.94
2017-01-20T12:33:25.384Z,52.96
2017-01-20T12:34:25.358Z,52.84
2017-01-20T12:35:24.954Z,52.94
2017-01-20T12:36:25.333Z,52.94
2017-01-20T12:37:24.908Z,53.16
2017-01-20T12:38:25.311Z,53.16
2017-01-20T12:39:25.281Z,52.77
2017-01-20T12:40:25.280Z,53.13
2017-01-20T12:41:24.850Z,54.53
2017-01-20T12:42:24.826Z,55.3
2017-01-20T12:43:25.210Z,55.68
2017-01-20T12:44:25.202Z,55.96
2017-01-20T12:45:25.187Z,55.77
2017-01-20T12:46:24.769Z,55.77
2017-01-20T12:47:24.754Z,55.32
2017-01-20T12:48:25.140Z,54.56
2017-01-20T12:49:24.716Z,53.99
2017-01-20T12:50:25.101Z,54.08
2017-01-20T12:51:25.093Z,54.15
2017-01-20T12:52:25.092Z,54.25
2017-01-20T12:53:25.061Z,55.01
2017-01-20T12:54:24.639Z,54.63
2017-01-20T12:55:25.064Z,53.77